Flight Track Log - Related Links

Times and Time Zones

All times are in EDT time to prevent confusion due to time zone crossing. See the N92CA flight status page for this flight to view local times or setup timezone preferences in your user account.

Time Position Orientation Groundspeed Altitude Reporting Facility
EDT Latitude Longitude Course Direction KTS MPH feet Rate Location/Type
Wed 08:56:26 PM 32.6967 -80.0686 312° West 134 154 2,200  Level Jacksonville Center
Wed 08:57:26 PM 32.6933 -80.1131 265° West 141 162 4,200 1,950 Climbing Jacksonville Center
Wed 08:58:26 PM 32.7089 -80.1522 295° West 135 155 6,100 1,835 Climbing Jacksonville Center
Wed 08:59:27 PM 32.7347 -80.1858 312° West 130 150 7,900 1,800 Climbing Jacksonville Center
Wed 09:00:26 PM 32.7625 -80.2172 316° Northwest 135 155 9,700 1,714 Climbing Jacksonville Center
Wed 09:01:00 PM 32.8605 -80.3307 312° West  Level FlightAware Approximate
Wed 09:01:26 PM 32.7903 -80.2511 314° West 141 162 11,300  Level Jacksonville Center
Wed 09:02:26 PM 32.8222 -80.2847 319° Northwest 141 162 12,800 1,550 Climbing Jacksonville Center
Wed 09:03:26 PM 32.8522 -80.3208 315° West 146 168 14,400 1,400 Climbing Jacksonville Center
Wed 09:04:26 PM 32.8822 -80.3547 317° Northwest 146 168 15,600 1,300 Climbing Jacksonville Center
Wed 09:05:26 PM 32.9122 -80.3933 313° West 146 168 17,000 1,339 Climbing Jacksonville Center
Wed 09:06:27 PM 32.9258 -80.4450 287° West 146 168 18,300 1,339 Climbing Jacksonville Center
Wed 09:07:27 PM 32.9350 -80.4942 283° West 152 175 19,700 1,261 Climbing Jacksonville Center
Wed 09:08:26 PM 32.9422 -80.5486 279° West 162 186 20,800 655 Climbing Jacksonville Center
Wed 09:09:26 PM 32.9475 -80.6103 276° West 177 204 21,000 100 Climbing Jacksonville Center
Wed 09:10:26 PM 32.9550 -80.6819 277° West 203 234 21,000  Level Jacksonville Center
Wed 09:11:26 PM 32.9625 -80.7558 277° West 223 257 21,000  Level Jacksonville Center
Wed 09:12:26 PM 32.9681 -80.8350 275° West 234 269 21,000  Level Jacksonville Center
Wed 09:13:26 PM 32.9839 -80.9114 284° West 234 269 21,000  Level Jacksonville Center
Wed 09:14:26 PM 33.0183 -80.9775 302° West 234 269 21,000  Level Jacksonville Center
Wed 09:15:26 PM 33.0550 -81.0536 300° West 234 269 21,000  Level Jacksonville Center
Wed 09:16:26 PM 33.0872 -81.1225 299° West 234 269 21,000  Level Jacksonville Center
Wed 09:17:26 PM 33.1236 -81.1886 303° West 239 275 21,000  Level Jacksonville Center
Wed 09:18:26 PM 33.1581 -81.2600 300° West 244 281 21,000  Level Jacksonville Center
Wed 09:19:26 PM 33.1922 -81.3264 302° West 244 281 21,000  Level Jacksonville Center
Wed 09:20:26 PM 33.2200 -81.3828 301° West 244 281 21,000  Level Jacksonville Center
Wed 09:21:26 PM 33.2564 -81.4544 301° West 244 281 21,000  Level Jacksonville Center
Wed 09:23:21 PM 33.3189 -81.5878 299° West 247 284 21,000  Level Atlanta Center
Wed 09:24:21 PM 33.3517 -81.6539 301° West 242 278 21,000  Level Atlanta Center
Wed 09:25:21 PM 33.3883 -81.7225 303° West 242 278 21,000  Level Atlanta Center
Wed 09:26:21 PM 33.4231 -81.7914 301° West 247 284 21,000  Level Atlanta Center
Wed 09:27:21 PM 33.4597 -81.8550 305° West 247 284 21,000  Level Atlanta Center
Wed 09:28:21 PM 33.5067 -81.9111 315° West 242 278 21,000  Level Atlanta Center
Wed 09:29:21 PM 33.5453 -81.9725 307° West 237 273 21,000  Level Atlanta Center
Wed 09:30:21 PM 33.5672 -82.0494 289° West 237 273 21,000  Level Atlanta Center
Wed 09:31:21 PM 33.5894 -82.1236 290° West 237 273 21,000  Level Atlanta Center
Wed 09:32:21 PM 33.6133 -82.1981 291° West 237 273 21,000 -50 Level Atlanta Center
Wed 09:33:21 PM 33.6356 -82.2722 290° West 237 273 20,900 -500 Descending Atlanta Center
Wed 09:34:21 PM 33.6639 -82.3642 290° West 259 298 20,000 -450 Descending Atlanta Center
Wed 09:35:21 PM 33.6897 -82.4358 293° West 264 304 20,000  Level Atlanta Center
Wed 09:36:21 PM 33.7181 -82.5153 293° West 264 304 20,000  Level Atlanta Center
Wed 09:37:21 PM 33.7314 -82.5925 282° West 252 290 20,000  Level Atlanta Center
Wed 09:38:21 PM 33.7594 -82.6694 294° West 247 284 20,000  Level Atlanta Center
Wed 09:39:21 PM 33.7833 -82.7442 291° West 247 284 20,000  Level Atlanta Center
Wed 09:40:21 PM 33.8050 -82.8189 289° West 242 278 20,000  Level Atlanta Center
Wed 09:41:21 PM 33.8264 -82.8961 288° West 247 284 20,000  Level Atlanta Center
Wed 09:42:21 PM 33.8522 -82.9808 290° West 247 284 20,000  Level Atlanta Center
Wed 09:43:21 PM 33.8739 -83.0556 289° West 247 284 20,000  Level Atlanta Center
Wed 09:44:21 PM 33.8994 -83.1353 291° West 247 284 20,000  Level Atlanta Center
Wed 09:45:21 PM 33.9231 -83.2125 290° West 247 284 20,000  Level Atlanta Center
Wed 09:46:21 PM 33.9444 -83.2900 288° West 247 284 20,000  Level Atlanta Center
Wed 09:47:21 PM 33.9697 -83.3675 291° West 247 284 20,000  Level Atlanta Center
Wed 09:48:21 PM 33.9911 -83.4475 288° West 247 284 20,000  Level Atlanta Center
Wed 09:49:21 PM 34.0144 -83.5250 290° West 247 284 20,000  Level Atlanta Center
Wed 09:50:21 PM 34.0378 -83.6000 291° West 247 284 20,000  Level Atlanta Center
Wed 09:51:21 PM 34.0608 -83.6753 290° West 247 284 20,000  Level Atlanta Center
Wed 09:52:21 PM 34.0819 -83.7553 288° West 247 284 20,000  Level Atlanta Center
Wed 09:53:21 PM 34.1031 -83.8231 291° West 247 284 20,000  Level Atlanta Center
Wed 09:54:21 PM 34.1261 -83.8983 290° West 247 284 20,000  Level Atlanta Center
Wed 09:55:21 PM 34.1469 -83.9786 287° West 247 284 20,000  Level Atlanta Center
Wed 09:56:21 PM 34.1700 -84.0564 290° West 247 284 20,000  Level Atlanta Center
Wed 09:57:21 PM 34.1928 -84.1292 291° West 247 284 20,000  Level Atlanta Center
Wed 09:58:21 PM 34.2136 -84.2072 288° West 247 284 20,000  Level Atlanta Center
Wed 09:59:21 PM 34.2364 -84.2825 290° West 247 284 20,000  Level Atlanta Center
Wed 10:00:21 PM 34.2592 -84.3606 289° West 247 284 20,000  Level Atlanta Center
Wed 10:01:21 PM 34.2800 -84.4361 288° West 247 284 20,000  Level Atlanta Center
Wed 10:02:21 PM 34.3025 -84.5142 289° West 247 284 20,000  Level Atlanta Center
Wed 10:03:21 PM 34.3272 -84.5972 290° West 247 284 20,000  Level Atlanta Center
Wed 10:04:21 PM 34.3478 -84.6753 288° West 247 284 20,000  Level Atlanta Center
Wed 10:05:21 PM 34.3703 -84.7511 290° West 247 284 20,000  Level Atlanta Center
Wed 10:06:21 PM 34.3886 -84.8142 289° West 247 284 20,000  Level Atlanta Center
Wed 10:07:21 PM 34.4153 -84.9100 289° West 247 284 20,000  Level Atlanta Center
Wed 10:08:21 PM 34.4356 -84.9858 288° West 247 284 20,000  Level Atlanta Center
Wed 10:09:21 PM 34.4558 -85.0592 289° West 247 284 20,000  Level Atlanta Center
Wed 10:10:21 PM 34.4761 -85.1375 287° West 247 284 20,000  Level Atlanta Center
Wed 10:11:21 PM 34.4964 -85.2058 290° West 247 284 20,000  Level Atlanta Center
Wed 10:12:21 PM 34.5164 -85.2817 288° West 247 284 20,000  Level Atlanta Center
Wed 10:13:21 PM 34.5386 -85.3578 290° West 247 284 20,000  Level Atlanta Center
Wed 10:14:21 PM 34.5586 -85.4361 287° West 247 284 20,000  Level Atlanta Center
Wed 10:15:21 PM 34.5806 -85.5097 290° West 247 284 20,000 -800 Level Atlanta Center
Wed 10:16:21 PM 34.6025 -85.5933 288° West 254 292 18,400 -1,600 Descending Atlanta Center
Wed 10:17:21 PM 34.6286 -85.6822 290° West 265 305 16,800 -1,700 Descending Atlanta Center
Wed 10:18:21 PM 34.6525 -85.7711 288° West 272 313 15,000 -1,850 Descending Atlanta Center
Wed 10:19:21 PM 34.6781 -85.8650 288° West 272 313 13,100 -1,900 Descending Atlanta Center
Wed 10:21:00 PM 34.7000 -85.9873 270° West  Level FlightAware Approximate
Wed 10:28:00 PM 34.8308 -86.4845 282° West  Level FlightAware Approximate
Wed 10:29:00 PM 34.8500 -86.5500 292° West  Level FlightAware Approximate
Wed 10:30:00 PM 34.8614 -86.5575 292° West  Level Estimated

Login

Don't have an account? Register now (free) for customized features, flight alerts, and more!